Overview Statistics Trail Chart Weather Telemetry Raw packets
 

This is the latest recevied packets stored in our database for station/object HB9PLM-64. If no packets are shown the sender has not sent any packets the latest 24 hours.

If you compare the raw packets with similar data from other websites it may differ (especially the path), the reason is that we are not collecting packets from the same APRS-IS servers. Each APRS-IS server performes duplicate filtering, and which packet that is considered to be a duplicate may differ depending on which APRS-IS server you receive your data from.

<< 1 2 3 4 >>

1788593082: HB9PLM-64>APRSGW,TCPIP*,qAR,HB9PLM-64:T#713,971.1,26.5,52.7,498,0.0,00000000

1788593082: HB9PLM-64>APRSGW,TCPIP*,qAR,HB9PLM-64:T#712,971.1,26.5,52.7,498,0.0,00000000

1788593082: HB9PLM-64>APRSGW,TCPIP*,qAR,HB9PLM-64:!4659.90N/00836.20E-/B=100/A=001299

1788591271: HB9PLM-64>APRSGW,TCPIP*,qAR,HB9PLM-64:T#710,970.5,25.6,54.3,435,0.0,00000000

1788591271: HB9PLM-64>APRSGW,TCPIP*,qAR,HB9PLM-64::HB9PLM-64:PARM.Press,Temp.in,Hum,eGAS,Temp.out,track,-,-,-,-,-,-,-

1788591271: HB9PLM-64>APRSGW,TCPIP*,qAR,HB9PLM-64:T#711,970.5,25.6,54.3,435,0.0,00000000

1788591271: HB9PLM-64>APRSGW,TCPIP*,qAR,HB9PLM-64::HB9PLM-64:EQNS.0,1,0,0,1,0,0,1,0,0,1,0,0,1,0

1788591271: HB9PLM-64>APRSGW,TCPIP*,qAR,HB9PLM-64::HB9PLM-64:UNIT.hPa,C deg,%,-,C deg,Y/N,O/N,O/N,O/N,O/N,O/N,O/N,O/N

1788591271: HB9PLM-64>APRSGW,TCPIP*,qAR,HB9PLM-64:!4659.91N/00836.20E-/B=100/A=001388

1788589458: HB9PLM-64>APLT00-1,WIDE1-1,qAO,HB9CF-10:=/6d*4P]pt- P[

1788589456: HB9PLM-64>APRSGW,TCPIP*,qAR,HB9PLM-64:T#709,970.6,24.4,58.8,376,0.0,10000000

1788589456: HB9PLM-64>APRSGW,TCPIP*,qAR,HB9PLM-64:!4659.87N/00836.20E-/B=100/A=001453

1788589426: HB9PLM-64>APRSGW,TCPIP*,qAR,HB9PLM-64:T#708,970.5,24.3,58.9,378,0.0,10000000

1788589426: HB9PLM-64>APRSGW,TCPIP*,qAR,HB9PLM-64:!4659.90N/00836.21E-/B=100/A=001453

1788588800: HB9PLM-64>APLT00-1,WIDE1-1,qAO,HB9CF-10:=/6d%XP]q,- P[

1788588798: HB9PLM-64>APRSGW,TCPIP*,qAR,HB9PLM-64:T#707,970.6,24.2,59.2,398,0.0,00000000

1788588798: HB9PLM-64>APRSGW,TCPIP*,qAR,HB9PLM-64:T#706,970.6,24.2,59.2,398,0.0,00000000

1788588798: HB9PLM-64>APRSGW,TCPIP*,qAR,HB9PLM-64:!4659.93N/00836.21E-/B=100/A=001417

1788588766: HB9PLM-64>APLT00-1,WIDE1-1,qAO,HB9CF-10:=/6d':P]q,- P[

1788588764: HB9PLM-64>APRSGW,TCPIP*,qAR,HB9PLM-64:T#705,970.6,24.2,59.2,398,0.0,10000000

1788588764: HB9PLM-64>APRSGW,TCPIP*,qAR,HB9PLM-64:!4659.91N/00836.21E-/B=100/A=001417

1788588668: HB9PLM-64>APLT00-1,WIDE1-1,qAO,HB9CF-10:=/6d&#P]q?- P[

1788588666: HB9PLM-64>APRSGW,TCPIP*,qAR,HB9PLM-64:T#704,970.5,24.1,59.2,404,0.0,10000000

1788588666: HB9PLM-64>APRSGW,TCPIP*,qAR,HB9PLM-64:!4659.93N/00836.22E-/B=100/A=001417

1788588593: HB9PLM-64>APLT00-1,WIDE1-1,qAO,HB9CF-10:=/6d':P]q,- P[